sensor_id;sensor_type;location;lat;lon;timestamp;P1;durP1;ratioP1;P2;durP2;ratioP2
19396;SDS011;9834;48.076;11.878;2022-11-15T00:02:16;8.70;;;5.90;;
19396;SDS011;9834;48.076;11.878;2022-11-15T00:04:43;9.60;;;6.67;;
19396;SDS011;9834;48.076;11.878;2022-11-15T00:07:10;8.37;;;5.83;;
19396;SDS011;9834;48.076;11.878;2022-11-15T00:09:37;9.50;;;6.23;;
19396;SDS011;9834;48.076;11.878;2022-11-15T00:12:05;11.17;;;5.90;;
19396;SDS011;9834;48.076;11.878;2022-11-15T00:14:32;6.57;;;5.70;;
19396;SDS011;9834;48.076;11.878;2022-11-15T00:16:59;5.50;;;4.33;;
19396;SDS011;9834;48.076;11.878;2022-11-15T00:19:26;6.73;;;5.20;;
19396;SDS011;9834;48.076;11.878;2022-11-15T00:21:53;8.73;;;5.87;;
19396;SDS011;9834;48.076;11.878;2022-11-15T00:24:20;5.93;;;4.93;;
19396;SDS011;9834;48.076;11.878;2022-11-15T00:26:46;5.83;;;4.70;;
19396;SDS011;9834;48.076;11.878;2022-11-15T00:29:15;6.77;;;4.80;;
19396;SDS011;9834;48.076;11.878;2022-11-15T00:31:42;6.70;;;5.23;;
19396;SDS011;9834;48.076;11.878;2022-11-15T00:34:09;5.97;;;4.60;;
19396;SDS011;9834;48.076;11.878;2022-11-15T00:36:36;6.93;;;5.20;;
19396;SDS011;9834;48.076;11.878;2022-11-15T00:39:03;8.93;;;4.80;;
19396;SDS011;9834;48.076;11.878;2022-11-15T00:41:31;6.50;;;5.30;;
19396;SDS011;9834;48.076;11.878;2022-11-15T00:43:58;7.03;;;5.27;;
19396;SDS011;9834;48.076;11.878;2022-11-15T00:46:26;8.57;;;5.13;;
19396;SDS011;9834;48.076;11.878;2022-11-15T00:48:53;6.87;;;4.97;;
19396;SDS011;9834;48.076;11.878;2022-11-15T00:51:20;5.20;;;4.53;;
19396;SDS011;9834;48.076;11.878;2022-11-15T00:53:47;6.83;;;4.80;;
19396;SDS011;9834;48.076;11.878;2022-11-15T00:56:13;6.07;;;4.60;;
19396;SDS011;9834;48.076;11.878;2022-11-15T00:58:40;5.90;;;5.20;;
19396;SDS011;9834;48.076;11.878;2022-11-15T01:01:08;8.50;;;6.13;;
19396;SDS011;9834;48.076;11.878;2022-11-15T01:03:38;8.00;;;4.93;;
19396;SDS011;9834;48.076;11.878;2022-11-15T01:06:07;8.30;;;5.50;;
19396;SDS011;9834;48.076;11.878;2022-11-15T01:08:34;7.03;;;5.30;;
19396;SDS011;9834;48.076;11.878;2022-11-15T01:11:01;6.00;;;4.80;;
19396;SDS011;9834;48.076;11.878;2022-11-15T01:13:29;6.67;;;5.03;;
19396;SDS011;9834;48.076;11.878;2022-11-15T01:15:57;8.53;;;5.20;;
19396;SDS011;9834;48.076;11.878;2022-11-15T01:18:24;9.57;;;4.80;;
19396;SDS011;9834;48.076;11.878;2022-11-15T01:20:52;5.87;;;5.27;;
19396;SDS011;9834;48.076;11.878;2022-11-15T01:23:19;6.53;;;5.30;;
19396;SDS011;9834;48.076;11.878;2022-11-15T01:25:46;7.90;;;5.50;;
19396;SDS011;9834;48.076;11.878;2022-11-15T01:28:13;7.83;;;5.37;;
19396;SDS011;9834;48.076;11.878;2022-11-15T01:30:40;9.10;;;6.40;;
19396;SDS011;9834;48.076;11.878;2022-11-15T01:33:07;6.37;;;5.33;;
19396;SDS011;9834;48.076;11.878;2022-11-15T01:35:37;8.23;;;5.53;;
19396;SDS011;9834;48.076;11.878;2022-11-15T01:38:06;13.13;;;5.57;;
19396;SDS011;9834;48.076;11.878;2022-11-15T01:40:33;9.17;;;5.87;;
19396;SDS011;9834;48.076;11.878;2022-11-15T01:45:46;7.47;;;5.37;;
19396;SDS011;9834;48.076;11.878;2022-11-15T01:48:17;8.03;;;5.87;;
19396;SDS011;9834;48.076;11.878;2022-11-15T01:50:44;6.53;;;5.27;;
19396;SDS011;9834;48.076;11.878;2022-11-15T01:53:12;6.83;;;4.80;;
19396;SDS011;9834;48.076;11.878;2022-11-15T01:55:40;7.37;;;5.97;;
19396;SDS011;9834;48.076;11.878;2022-11-15T01:58:07;9.07;;;6.13;;
19396;SDS011;9834;48.076;11.878;2022-11-15T02:00:34;8.83;;;5.47;;
19396;SDS011;9834;48.076;11.878;2022-11-15T02:03:01;5.77;;;5.10;;
19396;SDS011;9834;48.076;11.878;2022-11-15T02:05:29;6.27;;;5.63;;
19396;SDS011;9834;48.076;11.878;2022-11-15T02:07:57;7.97;;;5.53;;
19396;SDS011;9834;48.076;11.878;2022-11-15T02:10:28;7.60;;;5.43;;
19396;SDS011;9834;48.076;11.878;2022-11-15T02:12:55;8.30;;;5.90;;
19396;SDS011;9834;48.076;11.878;2022-11-15T02:15:23;9.33;;;5.27;;
19396;SDS011;9834;48.076;11.878;2022-11-15T02:17:56;9.20;;;6.20;;
19396;SDS011;9834;48.076;11.878;2022-11-15T02:20:46;6.87;;;5.70;;
19396;SDS011;9834;48.076;11.878;2022-11-15T02:29:28;7.80;;;4.93;;
19396;SDS011;9834;48.076;11.878;2022-11-15T02:32:09;7.43;;;5.67;;
19396;SDS011;9834;48.076;11.878;2022-11-15T02:34:46;9.53;;;6.33;;
19396;SDS011;9834;48.076;11.878;2022-11-15T02:37:21;6.03;;;5.33;;
19396;SDS011;9834;48.076;11.878;2022-11-15T02:39:57;8.37;;;5.20;;
19396;SDS011;9834;48.076;11.878;2022-11-15T02:42:33;9.93;;;5.57;;
19396;SDS011;9834;48.076;11.878;2022-11-15T02:45:24;7.10;;;5.30;;
19396;SDS011;9834;48.076;11.878;2022-11-15T02:47:56;8.37;;;5.67;;
19396;SDS011;9834;48.076;11.878;2022-11-15T02:50:25;7.63;;;5.47;;
19396;SDS011;9834;48.076;11.878;2022-11-15T02:52:56;8.27;;;5.37;;
19396;SDS011;9834;48.076;11.878;2022-11-15T02:55:26;7.07;;;5.37;;
19396;SDS011;9834;48.076;11.878;2022-11-15T02:57:59;5.30;;;4.13;;
19396;SDS011;9834;48.076;11.878;2022-11-15T03:00:38;6.20;;;4.47;;
19396;SDS011;9834;48.076;11.878;2022-11-15T03:03:16;6.77;;;5.40;;
19396;SDS011;9834;48.076;11.878;2022-11-15T03:05:56;8.13;;;5.30;;
19396;SDS011;9834;48.076;11.878;2022-11-15T03:08:33;7.77;;;5.20;;
19396;SDS011;9834;48.076;11.878;2022-11-15T03:11:07;7.27;;;5.37;;
19396;SDS011;9834;48.076;11.878;2022-11-15T03:13:36;9.30;;;6.00;;
19396;SDS011;9834;48.076;11.878;2022-11-15T03:16:06;7.53;;;5.43;;
19396;SDS011;9834;48.076;11.878;2022-11-15T03:18:37;11.27;;;5.40;;
19396;SDS011;9834;48.076;11.878;2022-11-15T03:21:08;9.67;;;4.97;;
19396;SDS011;9834;48.076;11.878;2022-11-15T03:23:38;6.40;;;4.80;;
19396;SDS011;9834;48.076;11.878;2022-11-15T03:26:06;5.60;;;5.03;;
19396;SDS011;9834;48.076;11.878;2022-11-15T03:28:36;9.47;;;5.30;;
19396;SDS011;9834;48.076;11.878;2022-11-15T03:31:05;5.93;;;4.80;;
19396;SDS011;9834;48.076;11.878;2022-11-15T03:33:49;6.60;;;4.83;;
19396;SDS011;9834;48.076;11.878;2022-11-15T03:36:18;5.93;;;4.63;;
19396;SDS011;9834;48.076;11.878;2022-11-15T03:38:47;7.13;;;4.50;;
19396;SDS011;9834;48.076;11.878;2022-11-15T03:41:15;7.30;;;5.33;;
19396;SDS011;9834;48.076;11.878;2022-11-15T03:43:49;5.40;;;3.87;;
19396;SDS011;9834;48.076;11.878;2022-11-15T03:46:22;5.60;;;4.57;;
19396;SDS011;9834;48.076;11.878;2022-11-15T03:48:54;4.93;;;4.07;;
19396;SDS011;9834;48.076;11.878;2022-11-15T03:51:28;4.93;;;3.93;;
19396;SDS011;9834;48.076;11.878;2022-11-15T03:53:56;5.03;;;3.77;;
19396;SDS011;9834;48.076;11.878;2022-11-15T03:56:23;4.40;;;4.00;;
19396;SDS011;9834;48.076;11.878;2022-11-15T03:58:50;4.27;;;3.87;;
19396;SDS011;9834;48.076;11.878;2022-11-15T04:01:17;4.53;;;3.77;;
19396;SDS011;9834;48.076;11.878;2022-11-15T04:03:43;3.83;;;3.43;;
19396;SDS011;9834;48.076;11.878;2022-11-15T04:06:12;3.80;;;3.40;;
19396;SDS011;9834;48.076;11.878;2022-11-15T04:08:38;4.50;;;3.60;;
19396;SDS011;9834;48.076;11.878;2022-11-15T04:11:05;3.80;;;3.40;;
19396;SDS011;9834;48.076;11.878;2022-11-15T04:13:32;5.27;;;3.43;;
19396;SDS011;9834;48.076;11.878;2022-11-15T04:15:59;4.33;;;3.10;;
19396;SDS011;9834;48.076;11.878;2022-11-15T04:18:26;4.37;;;3.70;;
19396;SDS011;9834;48.076;11.878;2022-11-15T04:20:53;5.13;;;3.27;;
19396;SDS011;9834;48.076;11.878;2022-11-15T04:23:39;4.33;;;3.40;;
19396;SDS011;9834;48.076;11.878;2022-11-15T04:26:26;6.07;;;3.63;;
19396;SDS011;9834;48.076;11.878;2022-11-15T04:28:53;5.30;;;3.40;;
19396;SDS011;9834;48.076;11.878;2022-11-15T04:31:37;4.23;;;3.43;;
19396;SDS011;9834;48.076;11.878;2022-11-15T04:34:04;5.10;;;3.57;;
19396;SDS011;9834;48.076;11.878;2022-11-15T04:36:31;3.73;;;3.43;;
19396;SDS011;9834;48.076;11.878;2022-11-15T04:39:17;3.27;;;2.87;;
19396;SDS011;9834;48.076;11.878;2022-11-15T04:41:44;4.63;;;3.47;;
19396;SDS011;9834;48.076;11.878;2022-11-15T04:44:11;4.17;;;3.33;;
19396;SDS011;9834;48.076;11.878;2022-11-15T04:46:37;5.00;;;3.47;;
19396;SDS011;9834;48.076;11.878;2022-11-15T04:49:04;6.17;;;4.77;;
19396;SDS011;9834;48.076;11.878;2022-11-15T04:51:31;5.30;;;4.03;;
19396;SDS011;9834;48.076;11.878;2022-11-15T04:53:58;8.10;;;3.97;;
19396;SDS011;9834;48.076;11.878;2022-11-15T04:56:26;4.90;;;4.10;;
19396;SDS011;9834;48.076;11.878;2022-11-15T04:58:53;4.03;;;3.37;;
19396;SDS011;9834;48.076;11.878;2022-11-15T05:01:20;3.27;;;2.97;;
19396;SDS011;9834;48.076;11.878;2022-11-15T05:03:47;4.00;;;3.60;;
19396;SDS011;9834;48.076;11.878;2022-11-15T05:06:31;3.73;;;3.10;;
19396;SDS011;9834;48.076;11.878;2022-11-15T05:08:58;3.20;;;2.90;;
19396;SDS011;9834;48.076;11.878;2022-11-15T05:11:27;5.47;;;3.43;;
19396;SDS011;9834;48.076;11.878;2022-11-15T05:13:54;4.53;;;3.53;;
19396;SDS011;9834;48.076;11.878;2022-11-15T05:16:21;4.47;;;3.80;;
19396;SDS011;9834;48.076;11.878;2022-11-15T05:18:50;5.40;;;3.43;;
19396;SDS011;9834;48.076;11.878;2022-11-15T05:21:17;5.83;;;3.50;;
19396;SDS011;9834;48.076;11.878;2022-11-15T05:23:44;7.27;;;3.93;;
19396;SDS011;9834;48.076;11.878;2022-11-15T05:26:11;6.83;;;3.83;;
19396;SDS011;9834;48.076;11.878;2022-11-15T05:28:40;5.93;;;3.43;;
19396;SDS011;9834;48.076;11.878;2022-11-15T05:31:09;3.57;;;3.27;;
19396;SDS011;9834;48.076;11.878;2022-11-15T05:33:38;4.97;;;3.20;;
19396;SDS011;9834;48.076;11.878;2022-11-15T05:36:07;5.00;;;3.53;;
19396;SDS011;9834;48.076;11.878;2022-11-15T05:38:38;3.23;;;2.93;;
19396;SDS011;9834;48.076;11.878;2022-11-15T05:41:05;5.67;;;3.70;;
19396;SDS011;9834;48.076;11.878;2022-11-15T05:43:33;4.43;;;3.60;;
19396;SDS011;9834;48.076;11.878;2022-11-15T05:46:05;5.10;;;3.07;;
19396;SDS011;9834;48.076;11.878;2022-11-15T05:48:33;4.97;;;3.13;;
19396;SDS011;9834;48.076;11.878;2022-11-15T05:51:02;3.13;;;2.83;;
19396;SDS011;9834;48.076;11.878;2022-11-15T05:53:31;2.93;;;2.60;;
19396;SDS011;9834;48.076;11.878;2022-11-15T05:55:58;4.07;;;3.40;;
19396;SDS011;9834;48.076;11.878;2022-11-15T05:58:25;4.67;;;3.30;;
19396;SDS011;9834;48.076;11.878;2022-11-15T06:00:52;3.53;;;3.17;;
19396;SDS011;9834;48.076;11.878;2022-11-15T06:03:22;3.33;;;3.03;;
19396;SDS011;9834;48.076;11.878;2022-11-15T06:05:49;5.60;;;3.40;;
19396;SDS011;9834;48.076;11.878;2022-11-15T06:08:16;3.47;;;2.77;;
19396;SDS011;9834;48.076;11.878;2022-11-15T06:10:43;2.40;;;2.17;;
19396;SDS011;9834;48.076;11.878;2022-11-15T06:13:10;2.73;;;2.33;;
19396;SDS011;9834;48.076;11.878;2022-11-15T06:15:37;2.77;;;2.30;;
19396;SDS011;9834;48.076;11.878;2022-11-15T06:18:10;3.33;;;3.03;;
19396;SDS011;9834;48.076;11.878;2022-11-15T06:20:38;3.43;;;2.53;;
19396;SDS011;9834;48.076;11.878;2022-11-15T06:23:05;3.13;;;2.67;;
19396;SDS011;9834;48.076;11.878;2022-11-15T06:25:32;2.77;;;2.43;;
19396;SDS011;9834;48.076;11.878;2022-11-15T06:28:00;3.57;;;2.50;;
19396;SDS011;9834;48.076;11.878;2022-11-15T06:30:27;3.77;;;2.43;;
19396;SDS011;9834;48.076;11.878;2022-11-15T06:32:58;3.83;;;2.80;;
19396;SDS011;9834;48.076;11.878;2022-11-15T06:35:26;3.23;;;2.57;;
19396;SDS011;9834;48.076;11.878;2022-11-15T06:37:55;4.20;;;2.63;;
19396;SDS011;9834;48.076;11.878;2022-11-15T06:40:22;2.17;;;1.97;;
19396;SDS011;9834;48.076;11.878;2022-11-15T06:42:49;2.60;;;2.03;;
19396;SDS011;9834;48.076;11.878;2022-11-15T06:45:16;3.13;;;2.53;;
19396;SDS011;9834;48.076;11.878;2022-11-15T06:47:46;5.57;;;2.40;;
19396;SDS011;9834;48.076;11.878;2022-11-15T06:50:13;3.63;;;2.67;;
19396;SDS011;9834;48.076;11.878;2022-11-15T06:52:40;2.97;;;2.07;;
19396;SDS011;9834;48.076;11.878;2022-11-15T06:55:09;2.63;;;2.40;;
19396;SDS011;9834;48.076;11.878;2022-11-15T06:57:36;3.97;;;2.33;;
19396;SDS011;9834;48.076;11.878;2022-11-15T07:00:03;2.17;;;1.97;;
19396;SDS011;9834;48.076;11.878;2022-11-15T07:02:31;2.90;;;2.07;;
19396;SDS011;9834;48.076;11.878;2022-11-15T07:04:58;3.17;;;2.20;;
19396;SDS011;9834;48.076;11.878;2022-11-15T07:07:28;3.03;;;2.30;;
19396;SDS011;9834;48.076;11.878;2022-11-15T07:10:03;5.13;;;2.80;;
19396;SDS011;9834;48.076;11.878;2022-11-15T07:12:35;2.97;;;2.13;;
19396;SDS011;9834;48.076;11.878;2022-11-15T07:15:02;2.73;;;1.87;;
19396;SDS011;9834;48.076;11.878;2022-11-15T07:17:30;2.37;;;2.13;;
19396;SDS011;9834;48.076;11.878;2022-11-15T07:20:06;2.77;;;1.97;;
19396;SDS011;9834;48.076;11.878;2022-11-15T07:22:35;4.03;;;2.47;;
19396;SDS011;9834;48.076;11.878;2022-11-15T07:25:02;3.07;;;2.27;;
19396;SDS011;9834;48.076;11.878;2022-11-15T07:27:29;2.40;;;1.83;;
19396;SDS011;9834;48.076;11.878;2022-11-15T07:29:58;2.07;;;1.50;;
19396;SDS011;9834;48.076;11.878;2022-11-15T07:32:25;5.33;;;1.77;;
19396;SDS011;9834;48.076;11.878;2022-11-15T07:34:51;2.47;;;2.20;;
19396;SDS011;9834;48.076;11.878;2022-11-15T07:37:18;2.23;;;2.00;;
19396;SDS011;9834;48.076;11.878;2022-11-15T07:39:45;1.77;;;1.67;;
19396;SDS011;9834;48.076;11.878;2022-11-15T07:42:12;2.30;;;1.77;;
19396;SDS011;9834;48.076;11.878;2022-11-15T07:44:58;3.17;;;2.27;;
19396;SDS011;9834;48.076;11.878;2022-11-15T07:47:25;2.07;;;1.70;;
19396;SDS011;9834;48.076;11.878;2022-11-15T07:49:54;2.13;;;1.93;;
19396;SDS011;9834;48.076;11.878;2022-11-15T07:52:21;2.97;;;1.80;;
19396;SDS011;9834;48.076;11.878;2022-11-15T07:54:48;2.20;;;1.93;;
19396;SDS011;9834;48.076;11.878;2022-11-15T07:57:15;1.83;;;1.67;;
19396;SDS011;9834;48.076;11.878;2022-11-15T07:59:42;2.27;;;1.63;;
19396;SDS011;9834;48.076;11.878;2022-11-15T08:02:10;2.13;;;2.00;;
19396;SDS011;9834;48.076;11.878;2022-11-15T08:04:37;3.57;;;1.87;;
19396;SDS011;9834;48.076;11.878;2022-11-15T08:07:04;2.00;;;1.67;;
19396;SDS011;9834;48.076;11.878;2022-11-15T08:09:31;1.83;;;1.43;;
19396;SDS011;9834;48.076;11.878;2022-11-15T08:11:57;5.20;;;2.30;;
19396;SDS011;9834;48.076;11.878;2022-11-15T08:14:24;4.13;;;2.03;;
19396;SDS011;9834;48.076;11.878;2022-11-15T08:16:51;2.20;;;2.00;;
19396;SDS011;9834;48.076;11.878;2022-11-15T08:19:19;1.70;;;1.60;;
19396;SDS011;9834;48.076;11.878;2022-11-15T08:21:46;1.73;;;1.63;;
19396;SDS011;9834;48.076;11.878;2022-11-15T08:24:13;1.70;;;1.60;;
19396;SDS011;9834;48.076;11.878;2022-11-15T08:26:41;2.10;;;1.80;;
19396;SDS011;9834;48.076;11.878;2022-11-15T08:29:07;1.83;;;1.73;;
19396;SDS011;9834;48.076;11.878;2022-11-15T08:31:34;1.73;;;1.63;;
19396;SDS011;9834;48.076;11.878;2022-11-15T08:34:02;3.07;;;2.10;;
19396;SDS011;9834;48.076;11.878;2022-11-15T08:36:31;2.20;;;1.60;;
19396;SDS011;9834;48.076;11.878;2022-11-15T08:38:58;1.80;;;1.70;;
19396;SDS011;9834;48.076;11.878;2022-11-15T08:41:25;2.57;;;2.13;;
19396;SDS011;9834;48.076;11.878;2022-11-15T08:43:54;2.80;;;2.10;;
19396;SDS011;9834;48.076;11.878;2022-11-15T08:46:21;2.03;;;1.80;;
19396;SDS011;9834;48.076;11.878;2022-11-15T08:48:49;1.97;;;1.60;;
19396;SDS011;9834;48.076;11.878;2022-11-15T08:51:16;1.67;;;1.57;;
19396;SDS011;9834;48.076;11.878;2022-11-15T08:53:44;1.70;;;1.60;;
19396;SDS011;9834;48.076;11.878;2022-11-15T08:56:11;2.17;;;1.70;;
19396;SDS011;9834;48.076;11.878;2022-11-15T08:58:39;1.93;;;1.37;;
19396;SDS011;9834;48.076;11.878;2022-11-15T09:01:13;2.07;;;1.50;;
19396;SDS011;9834;48.076;11.878;2022-11-15T09:03:41;1.50;;;1.40;;
19396;SDS011;9834;48.076;11.878;2022-11-15T09:06:08;1.90;;;1.70;;
19396;SDS011;9834;48.076;11.878;2022-11-15T09:08:35;3.53;;;1.77;;
19396;SDS011;9834;48.076;11.878;2022-11-15T09:11:04;1.77;;;1.43;;
19396;SDS011;9834;48.076;11.878;2022-11-15T09:13:33;1.67;;;1.50;;
19396;SDS011;9834;48.076;11.878;2022-11-15T09:16:02;2.10;;;1.40;;
19396;SDS011;9834;48.076;11.878;2022-11-15T09:18:30;2.00;;;1.73;;
19396;SDS011;9834;48.076;11.878;2022-11-15T09:20:58;2.73;;;1.77;;
19396;SDS011;9834;48.076;11.878;2022-11-15T09:23:27;1.37;;;1.20;;
19396;SDS011;9834;48.076;11.878;2022-11-15T09:25:58;1.80;;;1.40;;
19396;SDS011;9834;48.076;11.878;2022-11-15T09:28:27;2.90;;;1.83;;
19396;SDS011;9834;48.076;11.878;2022-11-15T09:30:55;1.70;;;1.53;;
19396;SDS011;9834;48.076;11.878;2022-11-15T09:33:24;1.77;;;1.63;;
19396;SDS011;9834;48.076;11.878;2022-11-15T09:35:52;1.40;;;1.30;;
19396;SDS011;9834;48.076;11.878;2022-11-15T09:38:19;1.50;;;1.40;;
19396;SDS011;9834;48.076;11.878;2022-11-15T09:40:47;2.20;;;1.53;;
19396;SDS011;9834;48.076;11.878;2022-11-15T09:43:28;1.43;;;1.33;;
19396;SDS011;9834;48.076;11.878;2022-11-15T09:46:01;4.00;;;1.70;;
19396;SDS011;9834;48.076;11.878;2022-11-15T09:48:42;2.37;;;1.73;;
19396;SDS011;9834;48.076;11.878;2022-11-15T09:51:18;1.20;;;1.10;;
19396;SDS011;9834;48.076;11.878;2022-11-15T09:53:53;1.27;;;1.20;;
19396;SDS011;9834;48.076;11.878;2022-11-15T09:56:26;1.70;;;1.53;;
19396;SDS011;9834;48.076;11.878;2022-11-15T09:58:58;0.97;;;0.97;;
19396;SDS011;9834;48.076;11.878;2022-11-15T10:01:35;1.33;;;1.20;;
19396;SDS011;9834;48.076;11.878;2022-11-15T10:04:10;1.27;;;1.17;;
19396;SDS011;9834;48.076;11.878;2022-11-15T10:06:40;1.47;;;1.37;;
19396;SDS011;9834;48.076;11.878;2022-11-15T10:09:13;1.30;;;1.20;;
19396;SDS011;9834;48.076;11.878;2022-11-15T10:11:43;2.40;;;1.50;;
19396;SDS011;9834;48.076;11.878;2022-11-15T10:14:13;1.37;;;1.20;;
19396;SDS011;9834;48.076;11.878;2022-11-15T10:19:49;3.90;;;2.13;;
19396;SDS011;9834;48.076;11.878;2022-11-15T10:22:24;1.57;;;1.47;;
19396;SDS011;9834;48.076;11.878;2022-11-15T10:25:00;1.63;;;1.53;;
19396;SDS011;9834;48.076;11.878;2022-11-15T10:27:38;1.63;;;1.50;;
19396;SDS011;9834;48.076;11.878;2022-11-15T10:30:11;1.23;;;1.20;;
19396;SDS011;9834;48.076;11.878;2022-11-15T10:32:40;2.17;;;1.43;;
19396;SDS011;9834;48.076;11.878;2022-11-15T10:35:16;1.77;;;1.43;;
19396;SDS011;9834;48.076;11.878;2022-11-15T10:37:48;2.17;;;1.63;;
19396;SDS011;9834;48.076;11.878;2022-11-15T10:40:16;5.10;;;1.60;;
19396;SDS011;9834;48.076;11.878;2022-11-15T10:42:45;1.83;;;1.50;;
19396;SDS011;9834;48.076;11.878;2022-11-15T10:45:27;1.87;;;1.73;;
19396;SDS011;9834;48.076;11.878;2022-11-15T10:48:18;2.10;;;1.90;;
19396;SDS011;9834;48.076;11.878;2022-11-15T10:50:48;1.93;;;1.77;;
19396;SDS011;9834;48.076;11.878;2022-11-15T10:53:17;1.33;;;1.30;;
19396;SDS011;9834;48.076;11.878;2022-11-15T10:55:57;1.77;;;1.63;;
19396;SDS011;9834;48.076;11.878;2022-11-15T10:58:30;1.80;;;1.70;;
19396;SDS011;9834;48.076;11.878;2022-11-15T11:01:12;1.50;;;1.40;;
19396;SDS011;9834;48.076;11.878;2022-11-15T11:03:42;1.90;;;1.70;;
19396;SDS011;9834;48.076;11.878;2022-11-15T11:06:10;1.40;;;1.30;;
19396;SDS011;9834;48.076;11.878;2022-11-15T11:08:39;1.43;;;1.33;;
19396;SDS011;9834;48.076;11.878;2022-11-15T11:11:07;1.40;;;1.30;;
19396;SDS011;9834;48.076;11.878;2022-11-15T11:13:35;3.27;;;1.67;;
19396;SDS011;9834;48.076;11.878;2022-11-15T11:19:10;2.53;;;1.47;;
19396;SDS011;9834;48.076;11.878;2022-11-15T11:21:48;1.47;;;1.20;;
19396;SDS011;9834;48.076;11.878;2022-11-15T11:24:22;1.80;;;1.50;;
19396;SDS011;9834;48.076;11.878;2022-11-15T11:27:01;1.27;;;1.10;;
19396;SDS011;9834;48.076;11.878;2022-11-15T11:29:44;2.20;;;1.20;;
19396;SDS011;9834;48.076;11.878;2022-11-15T11:32:30;1.83;;;1.40;;
19396;SDS011;9834;48.076;11.878;2022-11-15T11:35:21;1.37;;;1.10;;
19396;SDS011;9834;48.076;11.878;2022-11-15T11:37:55;3.57;;;1.50;;
19396;SDS011;9834;48.076;11.878;2022-11-15T11:40:30;4.13;;;1.40;;
19396;SDS011;9834;48.076;11.878;2022-11-15T11:43:03;1.83;;;1.23;;
19396;SDS011;9834;48.076;11.878;2022-11-15T11:45:42;2.00;;;1.50;;
19396;SDS011;9834;48.076;11.878;2022-11-15T11:48:23;1.97;;;1.57;;
19396;SDS011;9834;48.076;11.878;2022-11-15T11:51:03;3.10;;;1.37;;
19396;SDS011;9834;48.076;11.878;2022-11-15T11:53:37;2.70;;;1.87;;
19396;SDS011;9834;48.076;11.878;2022-11-15T11:56:11;2.87;;;1.43;;
19396;SDS011;9834;48.076;11.878;2022-11-15T11:58:44;1.23;;;1.13;;
19396;SDS011;9834;48.076;11.878;2022-11-15T12:01:15;5.13;;;1.73;;
19396;SDS011;9834;48.076;11.878;2022-11-15T12:03:48;1.33;;;1.23;;
19396;SDS011;9834;48.076;11.878;2022-11-15T12:06:20;1.40;;;1.30;;
19396;SDS011;9834;48.076;11.878;2022-11-15T12:08:53;1.83;;;1.37;;
19396;SDS011;9834;48.076;11.878;2022-11-15T12:11:28;0.90;;;0.90;;
19396;SDS011;9834;48.076;11.878;2022-11-15T12:13:59;1.90;;;1.43;;
19396;SDS011;9834;48.076;11.878;2022-11-15T12:16:30;1.73;;;0.97;;
19396;SDS011;9834;48.076;11.878;2022-11-15T12:19:00;2.53;;;1.07;;
19396;SDS011;9834;48.076;11.878;2022-11-15T12:21:31;3.07;;;1.27;;
19396;SDS011;9834;48.076;11.878;2022-11-15T12:24:06;1.67;;;1.10;;
19396;SDS011;9834;48.076;11.878;2022-11-15T12:26:39;0.97;;;0.97;;
19396;SDS011;9834;48.076;11.878;2022-11-15T12:29:11;1.23;;;1.13;;
19396;SDS011;9834;48.076;11.878;2022-11-15T12:31:43;1.57;;;1.03;;
19396;SDS011;9834;48.076;11.878;2022-11-15T12:37:02;1.40;;;1.30;;
19396;SDS011;9834;48.076;11.878;2022-11-15T12:40:29;2.30;;;1.57;;
19396;SDS011;9834;48.076;11.878;2022-11-15T12:46:02;2.03;;;1.40;;
19396;SDS011;9834;48.076;11.878;2022-11-15T12:48:48;1.50;;;1.20;;
19396;SDS011;9834;48.076;11.878;2022-11-15T12:51:19;1.40;;;1.30;;
19396;SDS011;9834;48.076;11.878;2022-11-15T12:53:48;1.33;;;1.23;;
19396;SDS011;9834;48.076;11.878;2022-11-15T12:56:21;1.35;;;1.02;;
19396;SDS011;9834;48.076;11.878;2022-11-15T12:58:50;1.00;;;1.00;;
19396;SDS011;9834;48.076;11.878;2022-11-15T13:04:26;1.60;;;1.10;;
19396;SDS011;9834;48.076;11.878;2022-11-15T13:06:56;1.00;;;0.90;;
19396;SDS011;9834;48.076;11.878;2022-11-15T13:15:32;1.40;;;1.30;;
19396;SDS011;9834;48.076;11.878;2022-11-15T13:21:00;0.95;;;0.90;;
19396;SDS011;9834;48.076;11.878;2022-11-15T13:23:51;1.10;;;1.10;;
19396;SDS011;9834;48.076;11.878;2022-11-15T13:26:19;1.35;;;1.25;;
19396;SDS011;9834;48.076;11.878;2022-11-15T13:28:49;0.90;;;0.90;;
19396;SDS011;9834;48.076;11.878;2022-11-15T13:31:25;1.95;;;1.05;;
19396;SDS011;9834;48.076;11.878;2022-11-15T13:33:55;1.48;;;1.17;;
19396;SDS011;9834;48.076;11.878;2022-11-15T13:36:26;1.08;;;0.98;;
19396;SDS011;9834;48.076;11.878;2022-11-15T13:38:57;1.48;;;1.35;;
19396;SDS011;9834;48.076;11.878;2022-11-15T13:41:26;1.85;;;1.42;;
19396;SDS011;9834;48.076;11.878;2022-11-15T13:43:56;2.83;;;1.42;;
19396;SDS011;9834;48.076;11.878;2022-11-15T13:46:24;1.88;;;1.65;;
19396;SDS011;9834;48.076;11.878;2022-11-15T13:48:53;4.70;;;1.75;;
19396;SDS011;9834;48.076;11.878;2022-11-15T13:51:24;1.50;;;1.40;;
19396;SDS011;9834;48.076;11.878;2022-11-15T13:54:00;1.35;;;1.25;;
19396;SDS011;9834;48.076;11.878;2022-11-15T13:56:30;5.88;;;1.73;;
19396;SDS011;9834;48.076;11.878;2022-11-15T13:59:00;1.65;;;1.40;;
19396;SDS011;9834;48.076;11.878;2022-11-15T14:01:34;4.78;;;1.77;;
19396;SDS011;9834;48.076;11.878;2022-11-15T14:04:01;3.10;;;1.75;;
19396;SDS011;9834;48.076;11.878;2022-11-15T14:06:29;1.80;;;1.38;;
19396;SDS011;9834;48.076;11.878;2022-11-15T14:09:02;1.48;;;1.30;;
19396;SDS011;9834;48.076;11.878;2022-11-15T14:11:49;1.55;;;1.45;;
19396;SDS011;9834;48.076;11.878;2022-11-15T14:14:20;3.13;;;1.73;;
19396;SDS011;9834;48.076;11.878;2022-11-15T14:16:49;2.08;;;1.58;;
19396;SDS011;9834;48.076;11.878;2022-11-15T14:19:38;1.75;;;1.27;;
19396;SDS011;9834;48.076;11.878;2022-11-15T14:30:39;1.60;;;1.50;;
19396;SDS011;9834;48.076;11.878;2022-11-15T14:33:17;3.13;;;2.25;;
19396;SDS011;9834;48.076;11.878;2022-11-15T14:35:47;2.33;;;1.97;;
19396;SDS011;9834;48.076;11.878;2022-11-15T14:38:15;1.83;;;1.73;;
19396;SDS011;9834;48.076;11.878;2022-11-15T14:40:42;1.77;;;1.57;;
19396;SDS011;9834;48.076;11.878;2022-11-15T14:43:09;2.17;;;1.97;;
19396;SDS011;9834;48.076;11.878;2022-11-15T14:45:38;1.63;;;1.50;;
19396;SDS011;9834;48.076;11.878;2022-11-15T14:48:06;7.13;;;2.10;;
19396;SDS011;9834;48.076;11.878;2022-11-15T14:50:33;2.47;;;1.83;;
19396;SDS011;9834;48.076;11.878;2022-11-15T14:53:01;1.70;;;1.60;;
19396;SDS011;9834;48.076;11.878;2022-11-15T14:55:29;1.00;;;1.00;;
19396;SDS011;9834;48.076;11.878;2022-11-15T14:58:00;1.37;;;1.27;;
19396;SDS011;9834;48.076;11.878;2022-11-15T15:00:28;2.67;;;1.97;;
19396;SDS011;9834;48.076;11.878;2022-11-15T15:02:57;1.93;;;1.60;;
19396;SDS011;9834;48.076;11.878;2022-11-15T15:05:25;1.37;;;1.10;;
19396;SDS011;9834;48.076;11.878;2022-11-15T15:07:55;1.27;;;1.17;;
19396;SDS011;9834;48.076;11.878;2022-11-15T15:10:30;1.73;;;1.63;;
19396;SDS011;9834;48.076;11.878;2022-11-15T15:12:58;2.00;;;1.50;;
19396;SDS011;9834;48.076;11.878;2022-11-15T15:15:27;1.27;;;1.17;;
19396;SDS011;9834;48.076;11.878;2022-11-15T15:17:59;2.00;;;1.60;;
19396;SDS011;9834;48.076;11.878;2022-11-15T15:20:26;1.93;;;1.30;;
19396;SDS011;9834;48.076;11.878;2022-11-15T15:22:53;2.00;;;1.47;;
19396;SDS011;9834;48.076;11.878;2022-11-15T15:25:21;2.93;;;2.10;;
19396;SDS011;9834;48.076;11.878;2022-11-15T15:27:50;1.37;;;1.30;;
19396;SDS011;9834;48.076;11.878;2022-11-15T15:30:17;7.87;;;3.60;;
19396;SDS011;9834;48.076;11.878;2022-11-15T15:32:44;9.53;;;5.30;;
19396;SDS011;9834;48.076;11.878;2022-11-15T15:35:13;5.60;;;3.60;;
19396;SDS011;9834;48.076;11.878;2022-11-15T15:37:42;2.80;;;2.47;;
19396;SDS011;9834;48.076;11.878;2022-11-15T15:40:12;2.60;;;2.37;;
19396;SDS011;9834;48.076;11.878;2022-11-15T15:42:42;2.43;;;2.23;;
19396;SDS011;9834;48.076;11.878;2022-11-15T15:45:10;2.70;;;1.63;;
19396;SDS011;9834;48.076;11.878;2022-11-15T15:47:37;2.23;;;2.03;;
19396;SDS011;9834;48.076;11.878;2022-11-15T15:50:09;3.77;;;2.20;;